createdAt,value
2018-11-03T00:01:34.059Z,13.83
2018-11-03T00:04:01.617Z,16.07
2018-11-03T00:06:29.156Z,15.63
2018-11-03T00:08:56.675Z,16.00
2018-11-03T00:11:24.205Z,16.97
2018-11-03T00:13:51.728Z,15.50
2018-11-03T00:16:19.272Z,13.43
2018-11-03T00:18:46.788Z,13.87
2018-11-03T00:21:14.319Z,13.57
2018-11-03T00:23:41.857Z,13.23
2018-11-03T00:26:09.384Z,13.33
2018-11-03T00:28:36.908Z,14.50
2018-11-03T00:31:04.596Z,12.40
2018-11-03T00:33:32.108Z,13.23
2018-11-03T00:35:59.787Z,13.30
2018-11-03T00:38:27.316Z,13.33
2018-11-03T00:40:54.852Z,12.83
2018-11-03T00:43:22.460Z,12.70
2018-11-03T00:45:49.996Z,14.37
2018-11-03T00:48:17.536Z,14.90
2018-11-03T00:50:45.074Z,16.27
2018-11-03T00:53:12.643Z,14.70
2018-11-03T00:55:40.142Z,17.23
2018-11-03T00:58:07.648Z,13.37
2018-11-03T01:00:35.176Z,14.43
2018-11-03T01:03:02.687Z,12.97
2018-11-03T01:05:30.223Z,12.70
2018-11-03T01:07:57.744Z,14.90
2018-11-03T01:10:25.285Z,16.20
2018-11-03T01:12:52.807Z,14.87
2018-11-03T01:15:20.345Z,15.40
2018-11-03T01:17:47.850Z,15.47
2018-11-03T01:20:16.471Z,16.47
2018-11-03T01:22:44.132Z,16.43
2018-11-03T01:25:11.659Z,15.17
2018-11-03T01:27:39.256Z,14.43
2018-11-03T01:30:11.649Z,15.87
2018-11-03T01:32:39.263Z,13.37
2018-11-03T01:35:07.364Z,16.87
2018-11-03T01:37:35.174Z,13.83
2018-11-03T01:40:02.724Z,14.40
2018-11-03T01:42:30.256Z,16.30
2018-11-03T01:44:57.764Z,14.73
2018-11-03T01:47:25.311Z,17.37
2018-11-03T01:49:52.839Z,15.90
2018-11-03T01:52:20.388Z,18.00
2018-11-03T01:54:47.919Z,17.73
2018-11-03T01:57:15.444Z,17.17
2018-11-03T01:59:43.116Z,15.30
2018-11-03T02:02:10.681Z,15.53
2018-11-03T02:04:38.211Z,14.90
2018-11-03T02:07:05.779Z,16.87
2018-11-03T02:09:33.303Z,15.17
2018-11-03T02:12:00.830Z,17.50
2018-11-03T02:14:28.351Z,16.63
2018-11-03T02:16:55.920Z,16.53
2018-11-03T02:19:26.188Z,17.20
2018-11-03T02:21:53.712Z,16.10
2018-11-03T02:24:21.232Z,17.13
2018-11-03T02:26:48.759Z,16.40
2018-11-03T02:29:16.284Z,16.10
2018-11-03T02:31:43.824Z,15.23
2018-11-03T02:34:11.348Z,16.37
2018-11-03T02:36:38.888Z,16.67
2018-11-03T02:39:07.389Z,18.97
2018-11-03T02:41:34.921Z,18.33
2018-11-03T02:44:02.455Z,15.80
2018-11-03T02:46:29.983Z,17.27
2018-11-03T02:48:57.520Z,16.70
2018-11-03T02:51:25.057Z,15.87
2018-11-03T02:53:52.588Z,16.97
2018-11-03T02:56:20.109Z,15.47
2018-11-03T02:58:47.628Z,17.23
2018-11-03T03:01:15.172Z,16.77
2018-11-03T03:03:42.713Z,15.97
2018-11-03T03:06:10.248Z,15.43
2018-11-03T03:08:37.775Z,15.53
2018-11-03T03:11:05.379Z,15.33
2018-11-03T03:13:32.909Z,16.03
2018-11-03T03:16:00.453Z,15.90
2018-11-03T03:18:27.988Z,15.87
2018-11-03T03:20:55.532Z,16.60
2018-11-03T03:23:23.077Z,18.23
2018-11-03T03:25:50.636Z,16.00
2018-11-03T03:28:18.181Z,18.30
2018-11-03T03:30:45.712Z,16.70
2018-11-03T03:33:13.257Z,16.00
2018-11-03T03:35:40.786Z,17.30
2018-11-03T03:38:08.319Z,16.67
2018-11-03T03:40:35.843Z,18.80
2018-11-03T03:43:03.726Z,19.40
2018-11-03T03:45:31.272Z,17.10
2018-11-03T03:47:58.817Z,16.60
2018-11-03T03:50:26.335Z,17.93
2018-11-03T03:52:53.901Z,18.37
2018-11-03T03:55:21.491Z,17.93
2018-11-03T03:57:49.033Z,20.73
2018-11-03T04:00:16.576Z,16.30
2018-11-03T04:02:44.128Z,17.00
2018-11-03T04:05:11.668Z,15.93
2018-11-03T04:07:39.344Z,17.17
2018-11-03T04:10:07.832Z,19.60
2018-11-03T04:12:35.365Z,17.07
2018-11-03T04:15:03.111Z,16.37
2018-11-03T04:17:30.648Z,16.50
2018-11-03T04:19:58.176Z,15.97
2018-11-03T04:22:25.716Z,17.03
2018-11-03T04:24:53.268Z,17.60
2018-11-03T04:27:20.813Z,19.57
2018-11-03T04:29:48.331Z,17.43
2018-11-03T04:32:15.882Z,17.67
2018-11-03T04:34:43.453Z,17.73
2018-11-03T04:37:10.994Z,17.63
2018-11-03T04:39:38.569Z,18.77
2018-11-03T04:42:06.125Z,17.03
2018-11-03T04:44:33.785Z,19.13
2018-11-03T04:47:01.346Z,18.07
2018-11-03T04:49:28.900Z,17.27
2018-11-03T04:51:56.455Z,17.53
2018-11-03T04:54:24.011Z,17.80
2018-11-03T04:56:51.556Z,18.83
2018-11-03T04:59:19.081Z,18.90
2018-11-03T05:01:46.628Z,18.77
2018-11-03T05:04:14.276Z,18.30
2018-11-03T05:06:41.785Z,18.97
2018-11-03T05:09:10.188Z,18.70
2018-11-03T05:11:37.974Z,20.57
2018-11-03T05:14:06.224Z,18.17
2018-11-03T05:16:33.759Z,19.90
2018-11-03T05:19:01.324Z,20.10
2018-11-03T05:21:28.941Z,18.37
2018-11-03T05:23:56.456Z,19.47
2018-11-03T05:26:23.992Z,19.83
2018-11-03T05:28:51.537Z,18.77
2018-11-03T05:31:19.148Z,18.67
2018-11-03T05:33:46.619Z,20.90
2018-11-03T05:36:14.162Z,19.20
2018-11-03T05:38:41.697Z,20.13
2018-11-03T05:41:09.255Z,18.90
2018-11-03T05:43:36.793Z,19.27
2018-11-03T05:46:04.316Z,19.30
2018-11-03T05:48:31.872Z,18.10
2018-11-03T05:50:59.437Z,18.80
2018-11-03T05:53:27.008Z,20.73
2018-11-03T05:55:54.582Z,19.60
2018-11-03T05:58:22.127Z,18.57
2018-11-03T06:00:49.668Z,18.70
2018-11-03T06:03:17.190Z,17.60
2018-11-03T06:05:44.708Z,18.80
2018-11-03T06:08:12.240Z,18.73
2018-11-03T06:10:39.779Z,19.33
2018-11-03T06:13:07.326Z,21.93
2018-11-03T06:15:34.911Z,19.73
2018-11-03T06:18:02.383Z,19.30
2018-11-03T06:20:29.894Z,20.43
2018-11-03T06:22:57.476Z,20.00
2018-11-03T06:25:25.152Z,22.27
2018-11-03T06:27:52.696Z,22.27
2018-11-03T06:30:20.217Z,22.70
2018-11-03T06:32:47.749Z,23.13
2018-11-03T06:35:15.288Z,23.40
2018-11-03T06:37:42.808Z,22.90
2018-11-03T06:40:10.424Z,23.03
2018-11-03T06:42:38.284Z,23.40
2018-11-03T06:45:07.106Z,23.10
2018-11-03T06:47:34.657Z,26.77
2018-11-03T06:50:02.397Z,25.00
2018-11-03T06:52:29.921Z,25.83
2018-11-03T06:54:57.445Z,25.07
2018-11-03T06:57:24.976Z,23.63
2018-11-03T06:59:52.564Z,21.77
2018-11-03T07:02:20.078Z,23.60
2018-11-03T07:04:47.596Z,29.80
2018-11-03T07:07:15.110Z,27.57
2018-11-03T07:09:42.635Z,26.70
2018-11-03T07:12:10.274Z,23.97
2018-11-03T07:14:37.692Z,23.27
2018-11-03T07:17:05.408Z,23.00
2018-11-03T07:19:32.954Z,21.57
2018-11-03T07:22:00.476Z,23.97
2018-11-03T07:24:28.029Z,21.30
2018-11-03T07:26:55.548Z,20.87
2018-11-03T07:29:23.107Z,21.10
2018-11-03T07:31:50.623Z,19.37
2018-11-03T07:34:18.117Z,19.20
2018-11-03T07:36:45.649Z,22.90
2018-11-03T07:39:13.469Z,20.07
2018-11-03T07:41:41.022Z,18.83
2018-11-03T07:44:08.722Z,18.53
2018-11-03T07:46:36.240Z,19.77
2018-11-03T07:49:04.041Z,19.33
2018-11-03T07:51:31.400Z,19.83
2018-11-03T07:53:58.944Z,25.97
2018-11-03T07:56:26.528Z,23.20
2018-11-03T07:58:54.062Z,18.20
2018-11-03T08:01:21.607Z,18.97
2018-11-03T08:03:49.148Z,16.03
2018-11-03T08:06:16.671Z,17.13
2018-11-03T08:08:44.219Z,18.00
2018-11-03T08:11:11.740Z,17.57
2018-11-03T08:13:39.272Z,16.23
2018-11-03T08:16:06.792Z,16.40
2018-11-03T08:18:34.315Z,15.93
2018-11-03T08:21:01.832Z,16.63
2018-11-03T08:23:29.344Z,16.47
2018-11-03T08:25:56.856Z,16.63
2018-11-03T08:28:24.460Z,17.57
2018-11-03T08:30:51.996Z,17.97
2018-11-03T08:33:19.510Z,17.70
2018-11-03T08:35:47.028Z,18.63
2018-11-03T08:38:14.581Z,16.63
2018-11-03T08:40:42.100Z,17.00
2018-11-03T08:43:09.651Z,16.53
2018-11-03T08:45:37.145Z,17.57
2018-11-03T08:48:05.424Z,16.87
2018-11-03T08:50:32.912Z,17.73
2018-11-03T08:53:00.432Z,16.33
2018-11-03T08:55:27.955Z,17.60
2018-11-03T08:57:55.460Z,18.77
2018-11-03T09:00:23.086Z,17.03
2018-11-03T09:02:50.511Z,18.47
2018-11-03T09:05:18.012Z,17.57
2018-11-03T09:07:45.527Z,16.87
2018-11-03T09:10:14.028Z,17.10
2018-11-03T09:12:41.779Z,18.10
2018-11-03T09:15:10.991Z,18.50
2018-11-03T09:17:39.368Z,18.83
2018-11-03T09:20:08.158Z,19.47
2018-11-03T09:22:36.547Z,18.23
2018-11-03T09:25:05.888Z,18.23
2018-11-03T09:27:33.406Z,18.00
2018-11-03T09:30:00.928Z,19.20
2018-11-03T09:32:28.451Z,17.13
2018-11-03T09:34:55.968Z,18.73
2018-11-03T09:37:23.484Z,20.50
2018-11-03T09:39:50.995Z,19.90
2018-11-03T09:42:18.511Z,18.70
2018-11-03T09:44:46.071Z,18.63
2018-11-03T09:47:13.551Z,18.33
2018-11-03T09:49:41.083Z,19.43
2018-11-03T09:52:08.619Z,19.23
2018-11-03T09:54:36.270Z,19.50
2018-11-03T09:57:04.019Z,19.50
2018-11-03T09:59:31.548Z,18.67
2018-11-03T10:01:59.061Z,19.10
2018-11-03T10:04:26.663Z,21.87
2018-11-03T10:06:54.163Z,19.10
2018-11-03T10:09:21.696Z,20.93
2018-11-03T10:11:49.222Z,23.47
2018-11-03T10:14:16.748Z,20.10
2018-11-03T10:16:44.281Z,19.43
2018-11-03T10:19:11.821Z,21.13
2018-11-03T10:21:39.344Z,20.57
2018-11-03T10:24:06.957Z,21.53
2018-11-03T10:26:34.476Z,23.97
2018-11-03T10:29:02.041Z,21.00
2018-11-03T10:31:29.524Z,20.27
2018-11-03T10:33:57.032Z,21.10
2018-11-03T10:36:24.566Z,20.50
2018-11-03T10:38:52.109Z,20.50
2018-11-03T10:41:19.628Z,21.00
2018-11-03T10:43:47.167Z,20.12
2018-11-03T10:46:14.762Z,20.80
2018-11-03T10:48:42.235Z,21.62
2018-11-03T10:51:10.019Z,19.77
2018-11-03T10:53:37.605Z,19.10
2018-11-03T10:56:05.092Z,20.90
2018-11-03T10:58:32.616Z,20.62
2018-11-03T11:01:05.865Z,19.90
2018-11-03T11:03:39.280Z,19.90
2018-11-03T11:06:12.526Z,21.57
2018-11-03T11:08:45.796Z,19.92
2018-11-03T11:11:19.148Z,19.62
2018-11-03T11:13:46.929Z,20.23
2018-11-03T11:16:14.482Z,19.95
2018-11-03T11:18:41.988Z,18.92
2018-11-03T11:21:09.529Z,20.20
2018-11-03T11:23:37.151Z,20.37
2018-11-03T11:26:04.677Z,19.57
2018-11-03T11:28:32.257Z,20.95
2018-11-03T11:30:59.776Z,20.23
2018-11-03T11:33:27.296Z,22.10
2018-11-03T11:35:54.836Z,20.32
2018-11-03T11:38:22.366Z,20.88
2018-11-03T11:40:49.888Z,21.60
2018-11-03T11:43:17.511Z,21.40
2018-11-03T11:45:44.942Z,20.85
2018-11-03T11:48:12.451Z,19.87
2018-11-03T11:50:39.985Z,20.23
2018-11-03T11:53:07.523Z,19.27
2018-11-03T11:55:35.055Z,21.62
2018-11-03T11:58:02.565Z,22.40
2018-11-03T12:00:30.116Z,21.15
2018-11-03T12:02:57.719Z,21.65
2018-11-03T12:05:25.275Z,26.50
2018-11-03T12:07:52.774Z,24.95
2018-11-03T12:10:20.315Z,21.73
2018-11-03T12:12:47.827Z,22.62
2018-11-03T12:15:15.355Z,23.62
2018-11-03T12:17:42.893Z,22.15
2018-11-03T12:20:10.427Z,22.62
2018-11-03T12:22:38.712Z,22.77
2018-11-03T12:25:08.541Z,22.17
2018-11-03T12:27:36.392Z,21.35
2018-11-03T12:30:06.404Z,24.37
2018-11-03T12:32:34.144Z,23.60
2018-11-03T12:35:01.986Z,24.10
2018-11-03T12:37:29.734Z,26.70
2018-11-03T12:39:57.505Z,23.00
2018-11-03T12:42:25.493Z,24.18
2018-11-03T12:44:53.258Z,23.35
2018-11-03T12:47:21.072Z,23.57
2018-11-03T12:49:51.637Z,22.00
2018-11-03T12:52:19.400Z,23.05
2018-11-03T12:54:47.133Z,23.02
2018-11-03T12:57:14.949Z,23.50
2018-11-03T12:59:42.782Z,22.17
2018-11-03T13:02:10.548Z,23.10
2018-11-03T13:04:38.326Z,24.40
2018-11-03T13:07:06.120Z,22.62
2018-11-03T13:09:34.054Z,24.10
2018-11-03T13:12:01.790Z,25.57
2018-11-03T13:14:29.478Z,25.70
2018-11-03T13:16:57.302Z,23.30
2018-11-03T13:19:25.122Z,23.00
2018-11-03T13:21:52.934Z,23.93
2018-11-03T13:24:20.786Z,24.80
2018-11-03T13:26:48.569Z,23.10
2018-11-03T13:29:16.348Z,23.77
2018-11-03T13:31:44.133Z,23.87
2018-11-03T13:34:11.974Z,22.63
2018-11-03T13:36:39.722Z,24.20
2018-11-03T13:39:08.600Z,24.77
2018-11-03T13:41:36.462Z,23.53
2018-11-03T13:44:04.483Z,24.13
2018-11-03T13:46:32.313Z,25.00
2018-11-03T13:49:00.476Z,24.43
2018-11-03T13:51:28.414Z,25.37
2018-11-03T13:53:56.447Z,29.90
2018-11-03T13:56:24.265Z,24.60
2018-11-03T13:58:52.744Z,24.87
2018-11-03T14:01:20.485Z,24.80
2018-11-03T14:03:48.245Z,24.47
2018-11-03T14:06:16.186Z,24.50
2018-11-03T14:08:44.026Z,23.83
2018-11-03T14:11:11.908Z,23.13
2018-11-03T14:13:39.685Z,23.03
2018-11-03T14:16:07.495Z,22.67
2018-11-03T14:18:35.248Z,22.83
2018-11-03T14:21:03.025Z,21.73
2018-11-03T14:23:30.869Z,22.43
2018-11-03T14:25:58.616Z,22.40
2018-11-03T14:28:26.390Z,22.33
2018-11-03T14:30:54.185Z,21.03
2018-11-03T14:33:21.976Z,21.33
2018-11-03T14:35:49.691Z,21.77
2018-11-03T14:38:17.481Z,21.90
2018-11-03T14:40:45.281Z,22.17
2018-11-03T14:43:13.135Z,20.83
2018-11-03T14:45:40.954Z,21.80
2018-11-03T14:48:08.789Z,22.77
2018-11-03T14:50:36.603Z,20.03
2018-11-03T14:53:04.446Z,22.17
2018-11-03T14:55:32.246Z,20.97
2018-11-03T14:57:59.992Z,22.50
2018-11-03T15:00:27.808Z,23.77
2018-11-03T15:02:55.624Z,24.03
2018-11-03T15:05:23.426Z,22.73
2018-11-03T15:07:51.177Z,22.47
2018-11-03T15:10:18.974Z,22.33
2018-11-03T15:12:46.809Z,19.93
2018-11-03T15:15:15.432Z,20.07
2018-11-03T15:17:43.594Z,22.23
2018-11-03T15:20:11.869Z,22.87
2018-11-03T15:22:40.249Z,20.20
2018-11-03T15:25:08.513Z,21.47
2018-11-03T15:27:36.297Z,21.87
2018-11-03T15:30:04.723Z,20.30
2018-11-03T15:32:32.546Z,20.50
2018-11-03T15:35:00.629Z,20.10
2018-11-03T15:37:28.416Z,22.43
2018-11-03T15:39:56.150Z,23.33
2018-11-03T15:42:23.945Z,19.83
2018-11-03T15:44:51.737Z,21.00
2018-11-03T15:47:19.604Z,20.93
2018-11-03T15:49:47.444Z,20.50
2018-11-03T15:52:15.253Z,21.60
2018-11-03T15:54:42.996Z,18.97
2018-11-03T15:57:10.788Z,21.60
2018-11-03T15:59:38.577Z,19.13
2018-11-03T16:02:06.300Z,20.80
2018-11-03T16:04:34.125Z,21.30
2018-11-03T16:07:01.957Z,18.20
2018-11-03T16:09:29.751Z,20.00
2018-11-03T16:11:57.651Z,18.43
2018-11-03T16:14:25.349Z,18.97
2018-11-03T16:16:53.148Z,19.80
2018-11-03T16:19:20.901Z,20.10
2018-11-03T16:21:48.665Z,18.07
2018-11-03T16:24:16.401Z,20.60
2018-11-03T16:26:44.199Z,19.53
2018-11-03T16:29:11.982Z,19.93
2018-11-03T16:31:39.745Z,18.77
2018-11-03T16:34:07.569Z,18.30
2018-11-03T16:36:35.392Z,19.87
2018-11-03T16:39:04.430Z,17.47
2018-11-03T16:41:32.200Z,19.47
2018-11-03T16:43:59.972Z,18.00
2018-11-03T16:46:27.757Z,19.97
2018-11-03T16:48:55.545Z,20.60
2018-11-03T16:51:23.345Z,19.43
2018-11-03T16:53:51.112Z,23.00
2018-11-03T16:56:18.917Z,19.63
2018-11-03T16:58:46.791Z,19.90
2018-11-03T17:01:14.549Z,20.03
2018-11-03T17:03:42.340Z,20.30
2018-11-03T17:06:10.179Z,19.57
2018-11-03T17:08:37.913Z,19.53
2018-11-03T17:11:05.729Z,24.07
2018-11-03T17:13:33.510Z,21.50
2018-11-03T17:16:01.313Z,21.40
2018-11-03T17:18:29.166Z,20.33
2018-11-03T17:20:56.944Z,22.47
2018-11-03T17:23:24.856Z,22.27
2018-11-03T17:25:52.650Z,20.67
2018-11-03T17:28:20.495Z,22.37
2018-11-03T17:30:48.310Z,21.07
2018-11-03T17:33:16.129Z,23.47
2018-11-03T17:35:43.905Z,22.17
2018-11-03T17:38:11.708Z,22.73
2018-11-03T17:40:39.467Z,21.97
2018-11-03T17:43:07.306Z,24.63
2018-11-03T17:45:35.153Z,24.40
2018-11-03T17:48:02.909Z,21.50
2018-11-03T17:50:30.661Z,23.07
2018-11-03T17:52:58.533Z,25.70
2018-11-03T17:55:26.366Z,23.63
2018-11-03T17:57:54.123Z,24.57
2018-11-03T18:00:23.889Z,22.60
2018-11-03T18:02:51.845Z,23.43
2018-11-03T18:05:19.709Z,24.17
2018-11-03T18:07:47.526Z,24.43
2018-11-03T18:10:15.275Z,22.43
2018-11-03T18:12:43.370Z,23.40
2018-11-03T18:15:11.220Z,24.93
2018-11-03T18:17:39.035Z,26.53
2018-11-03T18:20:07.444Z,22.53
2018-11-03T18:22:34.976Z,26.90
2018-11-03T18:25:02.753Z,26.10
2018-11-03T18:27:30.267Z,25.53
2018-11-03T18:29:57.836Z,23.53
2018-11-03T18:32:25.363Z,26.77
2018-11-03T18:34:52.909Z,24.33
2018-11-03T18:37:20.439Z,24.87
2018-11-03T18:39:47.957Z,25.47
2018-11-03T18:42:15.481Z,21.70
2018-11-03T18:44:43.025Z,23.70
2018-11-03T18:47:10.549Z,22.43
2018-11-03T18:49:38.088Z,24.33
2018-11-03T18:52:05.614Z,24.97
2018-11-03T18:54:33.172Z,26.40
2018-11-03T18:57:00.699Z,22.87
2018-11-03T18:59:28.228Z,27.63
2018-11-03T19:01:56.044Z,25.40
2018-11-03T19:04:23.590Z,24.40
2018-11-03T19:06:51.125Z,26.90
2018-11-03T19:09:18.750Z,24.50
2018-11-03T19:11:46.208Z,25.97
2018-11-03T19:14:13.748Z,24.67
2018-11-03T19:16:41.277Z,23.60
2018-11-03T19:19:08.813Z,28.53
2018-11-03T19:21:36.336Z,25.27
2018-11-03T19:24:04.165Z,27.40
2018-11-03T19:26:31.659Z,26.37
2018-11-03T19:28:59.209Z,24.13
2018-11-03T19:31:26.741Z,27.17
2018-11-03T19:33:54.269Z,23.80
2018-11-03T19:36:21.795Z,23.03
2018-11-03T19:38:49.327Z,25.17
2018-11-03T19:41:16.864Z,24.07
2018-11-03T19:43:44.408Z,24.27
2018-11-03T19:46:11.929Z,24.50
2018-11-03T19:48:39.464Z,25.40
2018-11-03T19:51:06.990Z,27.00
2018-11-03T19:53:34.533Z,25.77
2018-11-03T19:56:02.078Z,23.50
2018-11-03T19:58:29.605Z,23.60
2018-11-03T20:00:57.145Z,23.47
2018-11-03T20:03:24.744Z,25.10
2018-11-03T20:05:52.284Z,24.80
2018-11-03T20:08:19.821Z,23.40
2018-11-03T20:10:47.348Z,24.23
2018-11-03T20:13:14.890Z,23.27
2018-11-03T20:15:42.425Z,25.03
2018-11-03T20:18:09.952Z,23.47
2018-11-03T20:20:37.488Z,26.87
2018-11-03T20:23:05.023Z,23.80
2018-11-03T20:25:32.558Z,23.53
2018-11-03T20:28:00.090Z,25.50
2018-11-03T20:30:27.637Z,22.97
2018-11-03T20:32:55.163Z,23.73
2018-11-03T20:35:22.708Z,24.00
2018-11-03T20:37:50.245Z,26.30
2018-11-03T20:40:17.784Z,24.23
2018-11-03T20:42:45.315Z,23.20
2018-11-03T20:45:12.864Z,24.60
2018-11-03T20:47:40.405Z,22.50
2018-11-03T20:50:10.118Z,24.93
2018-11-03T20:52:37.652Z,21.70
2018-11-03T20:55:06.365Z,23.70
2018-11-03T20:57:33.882Z,22.40
2018-11-03T21:00:01.450Z,23.00
2018-11-03T21:02:28.980Z,21.90
2018-11-03T21:04:56.516Z,23.10
2018-11-03T21:07:24.047Z,22.73
2018-11-03T21:09:51.592Z,23.63
2018-11-03T21:12:19.116Z,23.23
2018-11-03T21:14:46.636Z,23.47
2018-11-03T21:17:14.164Z,23.90
2018-11-03T21:19:41.720Z,24.57
2018-11-03T21:22:10.697Z,23.77
2018-11-03T21:24:38.223Z,22.47
2018-11-03T21:27:06.776Z,23.10
2018-11-03T21:29:34.309Z,23.60
2018-11-03T21:32:01.894Z,23.40
2018-11-03T21:34:29.396Z,23.80
2018-11-03T21:36:56.907Z,23.57
2018-11-03T21:39:24.451Z,22.70
2018-11-03T21:41:51.975Z,24.30
2018-11-03T21:44:19.507Z,23.17
2018-11-03T21:46:47.119Z,24.60
2018-11-03T21:49:14.580Z,24.43
2018-11-03T21:51:42.119Z,24.13
2018-11-03T21:54:09.666Z,22.83
2018-11-03T21:56:37.213Z,24.23
2018-11-03T21:59:05.087Z,22.97
2018-11-03T22:01:32.652Z,22.27
2018-11-03T22:04:00.185Z,25.20
2018-11-03T22:06:27.785Z,25.87
2018-11-03T22:08:55.251Z,26.30
2018-11-03T22:11:22.765Z,24.83
2018-11-03T22:13:50.307Z,25.70
2018-11-03T22:16:17.838Z,24.87
2018-11-03T22:18:45.460Z,24.17
2018-11-03T22:21:13.031Z,26.87
2018-11-03T22:23:40.564Z,26.53
2018-11-03T22:26:08.092Z,23.60
2018-11-03T22:28:35.591Z,26.10
2018-11-03T22:31:03.145Z,24.97
2018-11-03T22:33:30.673Z,24.27
2018-11-03T22:35:58.224Z,24.47
2018-11-03T22:38:25.748Z,24.77
2018-11-03T22:40:53.274Z,25.03
2018-11-03T22:43:20.923Z,24.57
2018-11-03T22:45:48.448Z,26.10
2018-11-03T22:48:15.959Z,25.60
2018-11-03T22:50:43.518Z,23.57
2018-11-03T22:53:11.044Z,24.10
2018-11-03T22:55:38.586Z,23.30
2018-11-03T22:58:06.488Z,23.40
2018-11-03T23:00:38.652Z,24.03
2018-11-03T23:03:06.208Z,25.60
2018-11-03T23:05:33.757Z,24.67
2018-11-03T23:08:01.329Z,26.37
2018-11-03T23:10:28.860Z,24.90
2018-11-03T23:12:56.407Z,25.20
2018-11-03T23:15:24.710Z,21.97
2018-11-03T23:17:52.244Z,29.20
2018-11-03T23:20:19.769Z,26.37
2018-11-03T23:22:47.288Z,25.70
2018-11-03T23:25:14.828Z,30.00
2018-11-03T23:27:42.365Z,24.43
2018-11-03T23:30:11.316Z,25.97
2018-11-03T23:32:38.809Z,25.17
2018-11-03T23:35:08.832Z,27.17
2018-11-03T23:37:36.360Z,28.00
2018-11-03T23:40:04.653Z,27.93
2018-11-03T23:42:32.184Z,27.33
2018-11-03T23:44:59.775Z,26.70
2018-11-03T23:47:27.264Z,26.27
2018-11-03T23:49:54.783Z,27.10
2018-11-03T23:52:28.020Z,25.67
2018-11-03T23:54:55.550Z,24.90
2018-11-03T23:57:23.085Z,26.60
2018-11-03T23:59:50.637Z,25.77
